createdAt,value
2018-06-08T00:01:43.723Z,30.13
2018-06-08T00:04:12.654Z,29.90
2018-06-08T00:06:41.542Z,30.00
2018-06-08T00:09:10.434Z,30.90
2018-06-08T00:11:39.397Z,29.23
2018-06-08T00:14:08.397Z,28.23
2018-06-08T00:16:37.426Z,27.03
2018-06-08T00:19:06.424Z,26.23
2018-06-08T00:21:35.465Z,26.50
2018-06-08T00:24:04.673Z,23.67
2018-06-08T00:26:33.692Z,24.90
2018-06-08T00:29:02.835Z,26.27
2018-06-08T00:31:31.900Z,26.90
2018-06-08T00:34:02.528Z,25.37
2018-06-08T00:36:33.728Z,25.97
2018-06-08T00:39:06.567Z,25.83
2018-06-08T00:41:38.352Z,24.60
2018-06-08T00:44:10.018Z,23.77
2018-06-08T00:46:40.746Z,25.00
2018-06-08T00:49:12.264Z,23.57
2018-06-08T00:51:44.540Z,23.97
2018-06-08T00:54:15.398Z,24.80
2018-06-08T00:56:55.681Z,22.77
2018-06-08T00:59:26.280Z,24.57
2018-06-08T01:01:57.710Z,24.23
2018-06-08T01:04:27.755Z,25.00
2018-06-08T01:06:57.863Z,24.93
2018-06-08T01:09:28.741Z,24.63
2018-06-08T01:11:59.449Z,26.50
2018-06-08T01:14:34.290Z,25.60
2018-06-08T01:17:04.871Z,24.47
2018-06-08T01:19:35.840Z,25.27
2018-06-08T01:22:06.168Z,25.50
2018-06-08T01:24:38.585Z,24.20
2018-06-08T01:27:09.668Z,24.47
2018-06-08T01:29:40.829Z,26.43
2018-06-08T01:32:12.221Z,25.97
2018-06-08T01:34:44.206Z,25.47
2018-06-08T01:37:15.479Z,26.97
2018-06-08T01:39:48.220Z,27.67
2018-06-08T01:42:18.896Z,26.77
2018-06-08T01:44:47.690Z,26.30
2018-06-08T01:47:16.596Z,27.80
2018-06-08T01:49:45.502Z,28.37
2018-06-08T01:52:14.350Z,28.30
2018-06-08T01:54:43.275Z,27.07
2018-06-08T01:57:13.939Z,28.80
2018-06-08T01:59:44.441Z,28.03
2018-06-08T02:02:15.640Z,29.00
2018-06-08T02:04:46.407Z,27.73
2018-06-08T02:07:17.464Z,28.80
2018-06-08T02:09:47.893Z,29.53
2018-06-08T02:12:19.635Z,30.40
2018-06-08T02:14:51.305Z,30.70
2018-06-08T02:17:22.607Z,30.23
2018-06-08T02:19:54.491Z,31.23
2018-06-08T02:22:26.672Z,30.60
2018-06-08T02:24:58.413Z,31.17
2018-06-08T02:27:28.871Z,30.70
2018-06-08T02:30:00.048Z,30.67
2018-06-08T02:32:34.708Z,32.90
2018-06-08T02:35:03.615Z,32.63
2018-06-08T02:37:32.665Z,33.23
2018-06-08T02:40:01.556Z,33.43
2018-06-08T02:42:30.436Z,33.50
2018-06-08T02:45:00.517Z,32.47
2018-06-08T02:47:33.662Z,34.87
2018-06-08T02:50:04.306Z,33.83
2018-06-08T02:52:37.047Z,36.20
2018-06-08T02:55:09.972Z,34.20
2018-06-08T02:57:41.830Z,36.13
2018-06-08T03:00:13.474Z,35.70
2018-06-08T03:02:45.182Z,34.53
2018-06-08T03:05:16.105Z,38.93
2018-06-08T03:07:44.998Z,37.33
2018-06-08T03:10:13.874Z,38.40
2018-06-08T03:12:43.308Z,37.53
2018-06-08T03:15:12.326Z,38.50
2018-06-08T03:17:41.186Z,38.33
2018-06-08T03:20:10.124Z,38.83
2018-06-08T03:22:38.965Z,39.13
2018-06-08T03:25:07.852Z,39.57
2018-06-08T03:27:39.484Z,39.20
2018-06-08T03:30:11.989Z,38.13
2018-06-08T03:32:42.962Z,40.07
2018-06-08T03:35:13.872Z,38.83
2018-06-08T03:37:46.752Z,38.40
2018-06-08T03:40:17.152Z,37.97
2018-06-08T03:42:48.863Z,39.20
2018-06-08T03:45:19.465Z,38.83
2018-06-08T03:47:48.399Z,40.50
2018-06-08T03:50:17.444Z,38.33
2018-06-08T03:52:48.630Z,38.60
2018-06-08T03:55:19.711Z,40.87
2018-06-08T03:57:52.845Z,40.30
2018-06-08T04:00:25.368Z,39.93
2018-06-08T04:02:54.233Z,38.63
2018-06-08T04:05:23.313Z,40.77
2018-06-08T04:07:52.709Z,39.30
2018-06-08T04:10:22.892Z,40.13
2018-06-08T04:12:53.329Z,36.43
2018-06-08T04:15:27.260Z,39.10
2018-06-08T04:17:58.227Z,39.73
2018-06-08T04:20:29.225Z,37.97
2018-06-08T04:23:00.027Z,37.67
2018-06-08T04:25:30.698Z,40.63
2018-06-08T04:28:02.001Z,39.97
2018-06-08T04:30:31.647Z,39.20
2018-06-08T04:33:01.577Z,38.33
2018-06-08T04:35:32.246Z,38.10
2018-06-08T04:38:01.809Z,38.70
2018-06-08T04:40:32.949Z,38.83
2018-06-08T04:43:03.589Z,38.57
2018-06-08T04:45:34.204Z,38.43
2018-06-08T04:48:06.529Z,37.33
2018-06-08T04:50:36.379Z,38.23
2018-06-08T04:53:06.653Z,37.87
2018-06-08T04:55:36.441Z,36.13
2018-06-08T04:58:05.881Z,39.30
2018-06-08T05:00:35.202Z,40.33
2018-06-08T05:03:05.730Z,39.13
2018-06-08T05:05:35.159Z,40.40
2018-06-08T05:08:04.590Z,40.40
2018-06-08T05:10:35.187Z,42.27
2018-06-08T05:13:04.810Z,42.63
2018-06-08T05:15:34.518Z,43.90
2018-06-08T05:18:05.192Z,42.37
2018-06-08T05:20:35.257Z,42.10
2018-06-08T05:23:05.183Z,42.20
2018-06-08T05:25:34.623Z,41.50
2018-06-08T05:28:03.727Z,43.70
2018-06-08T05:30:33.356Z,44.67
2018-06-08T05:33:02.633Z,44.00
2018-06-08T05:35:32.410Z,45.50
2018-06-08T05:38:05.581Z,43.53
2018-06-08T05:40:34.893Z,44.40
2018-06-08T05:43:04.857Z,46.83
2018-06-08T05:45:34.578Z,48.00
2018-06-08T05:48:04.068Z,47.37
2018-06-08T05:50:34.513Z,46.33
2018-06-08T05:53:04.364Z,47.93
2018-06-08T05:55:33.172Z,48.50
2018-06-08T05:58:02.626Z,46.93
2018-06-08T06:00:31.456Z,49.63
2018-06-08T06:03:00.250Z,48.37
2018-06-08T06:05:28.577Z,48.70
2018-06-08T06:07:57.281Z,51.23
2018-06-08T06:10:26.050Z,48.73
2018-06-08T06:12:54.749Z,49.17
2018-06-08T06:15:23.469Z,51.53
2018-06-08T06:17:51.833Z,51.30
2018-06-08T06:20:20.571Z,49.43
2018-06-08T06:22:49.403Z,48.40
2018-06-08T06:25:18.181Z,46.83
2018-06-08T06:27:46.984Z,47.23
2018-06-08T06:30:15.843Z,49.93
2018-06-08T06:32:44.804Z,45.73
2018-06-08T06:35:13.788Z,45.33
2018-06-08T06:37:45.548Z,46.77
2018-06-08T06:40:14.384Z,45.97
2018-06-08T06:42:43.413Z,47.73
2018-06-08T06:45:12.333Z,46.77
2018-06-08T06:47:41.121Z,47.13
2018-06-08T06:50:09.999Z,46.97
2018-06-08T06:52:38.939Z,49.63
2018-06-08T06:55:07.837Z,53.57
2018-06-08T06:57:37.004Z,52.97
2018-06-08T07:00:08.822Z,52.53
2018-06-08T07:02:37.637Z,50.40
2018-06-08T07:05:06.571Z,50.20
2018-06-08T07:07:35.344Z,51.70
2018-06-08T07:10:04.399Z,50.23
2018-06-08T07:12:33.409Z,49.23
2018-06-08T07:15:02.345Z,48.40
2018-06-08T07:17:31.174Z,50.07
2018-06-08T07:20:00.070Z,50.43
2018-06-08T07:22:29.136Z,52.53
2018-06-08T07:24:57.973Z,50.63
2018-06-08T07:27:26.957Z,49.80
2018-06-08T07:29:55.862Z,49.63
2018-06-08T07:32:24.715Z,50.43
2018-06-08T07:34:53.720Z,52.03
2018-06-08T07:37:22.769Z,50.50
2018-06-08T07:39:52.284Z,51.67
2018-06-08T07:42:21.031Z,52.63
2018-06-08T07:44:50.012Z,52.63
2018-06-08T07:47:18.961Z,51.03
2018-06-08T07:49:48.065Z,52.30
2018-06-08T07:52:16.595Z,52.40
2018-06-08T07:54:45.402Z,50.47
2018-06-08T07:57:14.260Z,53.10
2018-06-08T07:59:43.145Z,51.63
2018-06-08T08:02:12.058Z,50.37
2018-06-08T08:04:40.859Z,51.70
2018-06-08T08:07:09.710Z,52.53
2018-06-08T08:09:38.560Z,54.07
2018-06-08T08:12:07.518Z,53.70
2018-06-08T08:14:36.354Z,54.73
2018-06-08T08:17:05.554Z,53.70
2018-06-08T08:19:34.368Z,54.63
2018-06-08T08:22:03.409Z,53.10
2018-06-08T08:24:32.269Z,54.43
2018-06-08T08:27:01.355Z,52.73
2018-06-08T08:29:30.117Z,55.07
2018-06-08T08:31:59.154Z,54.87
2018-06-08T08:34:28.050Z,54.43
2018-06-08T08:36:56.940Z,54.53
2018-06-08T08:39:25.376Z,56.87
2018-06-08T08:41:54.251Z,55.97
2018-06-08T08:44:23.117Z,57.47
2018-06-08T08:46:52.174Z,57.37
2018-06-08T08:49:21.112Z,60.00
2018-06-08T08:51:50.023Z,61.57
2018-06-08T08:54:19.054Z,65.27
2018-06-08T08:56:48.246Z,68.03
2018-06-08T08:59:20.164Z,67.77
2018-06-08T09:01:52.754Z,70.63
2018-06-08T09:04:22.234Z,70.80
2018-06-08T09:06:51.597Z,69.33
2018-06-08T09:09:24.090Z,72.17
2018-06-08T09:11:56.287Z,72.53
2018-06-08T09:14:25.454Z,71.90
2018-06-08T09:16:55.152Z,70.27
2018-06-08T09:19:24.618Z,74.63
2018-06-08T09:21:55.632Z,68.93
2018-06-08T09:24:25.057Z,68.93
2018-06-08T09:26:54.102Z,69.43
2018-06-08T09:29:28.013Z,70.87
2018-06-08T09:31:57.522Z,69.50
2018-06-08T09:34:26.472Z,68.57
2018-06-08T09:36:55.904Z,66.70
2018-06-08T09:39:28.804Z,70.57
2018-06-08T09:42:02.116Z,70.43
2018-06-08T09:44:34.477Z,72.10
2018-06-08T09:47:03.940Z,70.83
2018-06-08T09:49:33.232Z,69.00
2018-06-08T09:52:02.236Z,62.50
2018-06-08T09:54:32.711Z,58.60
2018-06-08T09:57:07.979Z,52.43
2018-06-08T09:59:40.492Z,50.57
2018-06-08T10:02:09.910Z,52.97
2018-06-08T10:04:39.585Z,49.47
2018-06-08T10:07:09.614Z,51.40
2018-06-08T10:09:39.602Z,47.23
2018-06-08T10:12:08.940Z,39.93
2018-06-08T10:14:39.725Z,37.70
2018-06-08T10:17:10.775Z,34.27
2018-06-08T10:19:40.132Z,33.20
2018-06-08T10:22:09.744Z,31.90
2018-06-08T10:24:38.921Z,31.47
2018-06-08T10:27:08.477Z,31.70
2018-06-08T10:29:37.988Z,33.13
2018-06-08T10:32:07.696Z,33.67
2018-06-08T10:34:37.287Z,35.13
2018-06-08T10:37:06.348Z,34.73
2018-06-08T10:39:35.479Z,35.97
2018-06-08T10:42:04.601Z,35.93
2018-06-08T10:44:33.704Z,37.93
2018-06-08T10:47:02.964Z,35.60
2018-06-08T10:49:32.452Z,35.13
2018-06-08T10:52:02.005Z,38.40
2018-06-08T10:54:32.881Z,35.10
2018-06-08T10:57:03.351Z,35.97
2018-06-08T10:59:34.531Z,33.43
2018-06-08T11:02:04.012Z,32.00
2018-06-08T11:04:33.264Z,30.43
2018-06-08T11:07:02.696Z,31.33
2018-06-08T11:09:32.382Z,30.83
2018-06-08T11:12:02.087Z,30.10
2018-06-08T11:14:31.452Z,27.30
2018-06-08T11:17:01.085Z,24.30
2018-06-08T11:19:30.897Z,25.63
2018-06-08T11:22:04.521Z,27.57
2018-06-08T11:24:36.403Z,28.47
2018-06-08T11:29:35.665Z,26.90
2018-06-08T11:32:05.081Z,29.27
2018-06-08T11:34:34.629Z,32.57
2018-06-08T11:37:04.637Z,32.13
2018-06-08T11:39:37.246Z,31.47
2018-06-08T11:42:16.034Z,34.77
2018-06-08T11:44:48.449Z,32.73
2018-06-08T11:47:17.822Z,34.30
2018-06-08T11:49:48.117Z,37.93
2018-06-08T11:52:20.670Z,37.50
2018-06-08T11:54:52.576Z,37.40
2018-06-08T11:57:21.572Z,37.57
2018-06-08T11:59:51.155Z,38.00
2018-06-08T12:02:20.564Z,35.53
2018-06-08T12:04:52.091Z,35.97
2018-06-08T12:07:24.415Z,37.80
2018-06-08T12:09:55.129Z,37.93
2018-06-08T12:12:28.364Z,37.13
2018-06-08T12:15:01.791Z,35.40
2018-06-08T12:17:34.666Z,36.33
2018-06-08T12:20:03.653Z,34.83
2018-06-08T12:22:35.867Z,36.23
2018-06-08T12:25:05.122Z,35.70
2018-06-08T12:27:34.373Z,33.90
2018-06-08T12:30:05.764Z,34.90
2018-06-08T12:32:38.780Z,34.93
2018-06-08T12:35:15.580Z,34.13
2018-06-08T12:37:45.091Z,32.37
2018-06-08T12:40:20.880Z,32.27
2018-06-08T12:42:53.014Z,31.87
2018-06-08T12:45:32.014Z,33.00
2018-06-08T12:48:06.677Z,31.90
2018-06-08T12:50:42.808Z,30.87
2018-06-08T12:53:14.772Z,28.17
2018-06-08T12:55:45.550Z,26.80
2018-06-08T12:58:24.309Z,27.30
2018-06-08T13:00:56.413Z,25.93
2018-06-08T13:03:27.744Z,25.77
2018-06-08T13:06:01.401Z,23.33
2018-06-08T13:08:33.134Z,24.90
2018-06-08T13:11:04.569Z,25.27
2018-06-08T13:13:34.638Z,25.73
2018-06-08T13:16:08.579Z,25.60
2018-06-08T13:18:42.256Z,28.17
2018-06-08T13:21:16.439Z,26.27
2018-06-08T13:24:02.153Z,26.17
2018-06-08T13:26:33.297Z,30.33
2018-06-08T13:29:03.120Z,29.27
2018-06-08T13:31:40.640Z,31.73
2018-06-08T13:34:09.967Z,31.33
2018-06-08T13:36:39.500Z,30.23
2018-06-08T13:39:11.935Z,30.80
2018-06-08T13:41:47.003Z,32.70
2018-06-08T13:44:18.758Z,32.17
2018-06-08T13:46:48.477Z,32.23
2018-06-08T13:49:17.985Z,32.53
2018-06-08T13:51:47.570Z,34.90
2018-06-08T13:54:16.925Z,32.30
2018-06-08T13:56:46.000Z,31.67
2018-06-08T13:59:15.094Z,33.07
2018-06-08T14:01:44.232Z,31.30
2018-06-08T14:04:13.551Z,35.37
2018-06-08T14:06:43.061Z,33.63
2018-06-08T14:18:10.174Z,32.23
2018-06-08T14:29:09.719Z,30.50
2018-06-08T14:40:39.927Z,27.47
2018-06-08T14:45:09.872Z,27.80
2018-06-08T14:47:53.842Z,28.37
2018-06-08T14:53:28.313Z,29.10
2018-06-08T14:56:01.737Z,28.50
2018-06-08T16:13:23.606Z,20.93
2018-06-08T16:23:13.325Z,26.10
2018-06-08T16:55:00.775Z,30.97
2018-06-08T17:23:34.116Z,34.20
2018-06-08T17:32:20.277Z,37.97
2018-06-08T17:38:22.489Z,37.23
2018-06-08T17:52:56.762Z,40.30
2018-06-08T17:55:51.301Z,38.17
2018-06-08T17:58:50.733Z,40.57
2018-06-08T18:01:59.108Z,43.30
2018-06-08T18:18:08.008Z,41.90
2018-06-08T18:30:26.822Z,44.00
2018-06-08T18:33:18.375Z,45.83
2018-06-08T18:36:26.143Z,45.30
2018-06-08T18:39:20.877Z,47.27
2018-06-08T18:50:59.789Z,49.43
2018-06-08T18:59:52.685Z,46.80
2018-06-08T19:11:28.583Z,49.97
2018-06-08T19:24:00.747Z,54.07
2018-06-08T19:27:04.357Z,53.27
2018-06-08T19:32:56.826Z,55.27
2018-06-08T19:35:50.362Z,54.17
2018-06-08T19:44:52.092Z,51.63
2018-06-08T19:53:39.796Z,54.87
2018-06-08T20:05:40.511Z,58.70
2018-06-08T20:08:43.165Z,64.07
2018-06-08T20:14:47.703Z,67.93
2018-06-08T20:17:59.105Z,65.87
2018-06-08T20:23:45.435Z,67.23
2018-06-08T20:32:58.502Z,67.90
2018-06-08T20:38:53.304Z,70.40
2018-06-08T20:41:55.744Z,69.23
2018-06-08T20:47:33.774Z,68.70
2018-06-08T22:11:07.669Z,84.20
2018-06-08T22:22:40.226Z,85.90
2018-06-08T22:31:19.415Z,85.93
2018-06-08T22:34:08.924Z,86.90
2018-06-08T22:39:52.856Z,87.13
2018-06-08T22:42:44.949Z,89.77
2018-06-08T22:53:52.695Z,84.17
2018-06-08T23:02:11.765Z,85.10
2018-06-08T23:07:49.074Z,87.27
2018-06-08T23:40:42.547Z,89.07
2018-06-08T23:43:23.421Z,93.50
2018-06-08T23:46:12.546Z,92.07
2018-06-08T23:54:27.236Z,92.27
